UAL617 EDDB-KEWR
Flight info
| Callsign | UAL617 |
|---|---|
| Flight time | N/A |
| Altitude | 34000 |
| Route | SUKIP4N SUKIP Y206 BUREL P203 HLZ L980 SAS DCT MAWEQ DCT TENLI DCT RAVLO Y70 OTBED DCT ABLUC DCT OZRAT DCT WETFI DCT ASKUP DCT TUGSI DCT REVNU DCT RESNO/M082F360 DCT 56N020W 56N030W 56N040W 55N050W DCT LOMSI/N0481F360 N672A ANATI DCT IMORI DCT HANAA FLOSI4 |
| Aircraft | B77W/H-SDE1E2E3FGHIJ2J3J4J5M1RWXY/LB1D1 |
Departure
| Time | N/A |
|---|---|
| Airport | Berlin Brandenburg Airport (EDDB) |
Arrival
| Time | 2026-05-05 02:21 |
|---|---|
| Airport | Newark Liberty International Airport (KEWR) |
| Time | Latitude | Longitude | Altitude | Speed | Heading |
|---|---|---|---|---|---|
| 2026-05-04 21:13 | 56.01030 | -20.27401 | 36259 ft | 476 kts | 275° |
| 2026-05-04 21:13 | 56.01461 | -20.38183 | 36262 ft | 477 kts | 275° |
| 2026-05-04 21:14 | 56.01887 | -20.49372 | 36260 ft | 476 kts | 275° |
| 2026-05-04 21:14 | 56.02277 | -20.59994 | 36257 ft | 476 kts | 275° |
| 2026-05-04 21:15 | 56.02676 | -20.71193 | 36264 ft | 476 kts | 274° |
| 2026-05-04 21:15 | 56.03055 | -20.82191 | 36262 ft | 474 kts | 274° |
| 2026-05-04 21:16 | 56.03439 | -20.93651 | 36264 ft | 476 kts | 274° |
| 2026-05-04 21:16 | 56.03799 | -21.04727 | 36257 ft | 474 kts | 274° |
| 2026-05-04 21:17 | 56.04163 | -21.16253 | 36269 ft | 475 kts | 274° |
| 2026-05-04 21:17 | 56.04474 | -21.26385 | 36253 ft | 475 kts | 274° |
| 2026-05-04 21:18 | 56.04814 | -21.37817 | 36270 ft | 475 kts | 274° |
| 2026-05-04 21:18 | 56.05130 | -21.48745 | 36261 ft | 475 kts | 274° |
| 2026-05-04 21:19 | 56.05450 | -21.60175 | 36256 ft | 476 kts | 274° |
| 2026-05-04 21:19 | 56.05744 | -21.71041 | 36260 ft | 476 kts | 273° |
| 2026-05-04 21:20 | 56.06041 | -21.82405 | 36252 ft | 475 kts | 273° |
| 2026-05-04 21:20 | 56.06320 | -21.93437 | 36253 ft | 475 kts | 273° |
| 2026-05-04 21:21 | 56.06588 | -22.04461 | 36261 ft | 476 kts | 274° |
| 2026-05-04 21:21 | 56.06853 | -22.15737 | 36267 ft | 476 kts | 273° |
| 2026-05-04 21:22 | 56.07098 | -22.26596 | 36277 ft | 477 kts | 273° |
| 2026-05-04 21:22 | 56.07338 | -22.37675 | 36277 ft | 477 kts | 273° |
| 2026-05-04 21:23 | 56.07563 | -22.48486 | 36292 ft | 477 kts | 273° |
| 2026-05-04 21:23 | 56.07783 | -22.59563 | 36286 ft | 478 kts | 273° |
| 2026-05-04 21:24 | 56.07992 | -22.70565 | 36291 ft | 479 kts | 272° |
| 2026-05-04 21:24 | 56.08203 | -22.82257 | 36289 ft | 477 kts | 272° |
| 2026-05-04 21:25 | 56.08389 | -22.93077 | 36281 ft | 478 kts | 272° |
| 2026-05-04 21:25 | 56.08583 | -23.05030 | 36282 ft | 479 kts | 272° |
| 2026-05-04 21:26 | 56.08752 | -23.16077 | 36273 ft | 479 kts | 272° |
| 2026-05-04 21:26 | 56.08927 | -23.28223 | 36276 ft | 479 kts | 272° |
| 2026-05-04 21:27 | 56.09079 | -23.39554 | 36266 ft | 479 kts | 272° |
| 2026-05-04 21:27 | 56.09226 | -23.51307 | 36285 ft | 479 kts | 272° |
| 2026-05-04 21:28 | 56.09355 | -23.62486 | 36282 ft | 480 kts | 272° |
| 2026-05-04 21:28 | 56.09483 | -23.74450 | 36276 ft | 480 kts | 271° |
| 2026-05-04 21:29 | 56.09539 | -23.80115 | 36625 ft | 479 kts | 271° |
| 2026-05-04 21:29 | 56.09592 | -23.85825 | 36111 ft | 479 kts | 271° |
| 2026-05-04 21:29 | 56.09689 | -23.96837 | 36611 ft | 480 kts | 271° |
| 2026-05-04 21:30 | 56.09736 | -24.02620 | 36422 ft | 482 kts | 271° |
| 2026-05-04 21:30 | 56.09779 | -24.08262 | 36325 ft | 479 kts | 271° |
| 2026-05-04 21:30 | 56.09862 | -24.20240 | 36292 ft | 479 kts | 271° |
| 2026-05-04 21:31 | 56.09956 | -24.36412 | 36327 ft | 481 kts | 271° |
| 2026-05-04 21:32 | 56.10009 | -24.47771 | 36295 ft | 479 kts | 271° |
| 2026-05-04 21:32 | 56.10051 | -24.58852 | 36295 ft | 479 kts | 271° |
| 2026-05-04 21:33 | 56.10086 | -24.71083 | 36300 ft | 482 kts | 270° |
| 2026-05-04 21:33 | 56.10107 | -24.82328 | 36309 ft | 481 kts | 270° |
| 2026-05-04 21:34 | 56.10118 | -24.94538 | 36289 ft | 481 kts | 270° |
| 2026-05-04 21:34 | 56.10118 | -25.05751 | 36285 ft | 482 kts | 270° |
| 2026-05-04 21:35 | 56.10106 | -25.17975 | 36298 ft | 484 kts | 270° |
| 2026-05-04 21:35 | 56.10085 | -25.29160 | 36285 ft | 483 kts | 271° |
| 2026-05-04 21:36 | 56.10052 | -25.40840 | 36287 ft | 484 kts | 271° |
| 2026-05-04 21:36 | 56.10009 | -25.52142 | 36299 ft | 484 kts | 271° |
| 2026-05-04 21:37 | 56.09954 | -25.63851 | 36273 ft | 484 kts | 271° |
| 2026-05-04 21:37 | 56.09890 | -25.75318 | 36280 ft | 485 kts | 270° |
| 2026-05-04 21:38 | 56.09811 | -25.87367 | 36280 ft | 486 kts | 270° |
| 2026-05-04 21:38 | 56.09722 | -25.99179 | 36305 ft | 487 kts | 270° |
| 2026-05-04 21:39 | 56.09618 | -26.11419 | 36305 ft | 487 kts | 270° |
| 2026-05-04 21:39 | 56.09507 | -26.23157 | 36315 ft | 487 kts | 270° |
| 2026-05-04 21:40 | 56.09384 | -26.34895 | 36309 ft | 489 kts | 270° |
| 2026-05-04 21:40 | 56.09252 | -26.46490 | 36324 ft | 488 kts | 270° |
| 2026-05-04 21:41 | 56.09109 | -26.58146 | 36325 ft | 488 kts | 270° |
| 2026-05-04 21:41 | 56.08953 | -26.69930 | 36320 ft | 489 kts | 269° |
| 2026-05-04 21:42 | 56.08783 | -26.81844 | 36311 ft | 489 kts | 269° |
| 2026-05-04 21:42 | 56.08600 | -26.93915 | 36308 ft | 490 kts | 269° |
| 2026-05-04 21:43 | 56.08408 | -27.05762 | 36318 ft | 489 kts | 270° |
| 2026-05-04 21:43 | 56.08202 | -27.17822 | 36326 ft | 489 kts | 269° |
| 2026-05-04 21:44 | 56.07989 | -27.29582 | 36334 ft | 489 kts | 270° |
| 2026-05-04 21:44 | 56.07760 | -27.41622 | 36290 ft | 490 kts | 270° |
| 2026-05-04 21:45 | 56.07525 | -27.53370 | 36351 ft | 491 kts | 270° |
| 2026-05-04 21:45 | 56.07273 | -27.65348 | 36297 ft | 489 kts | 269° |
| 2026-05-04 21:46 | 56.07021 | -27.76878 | 36347 ft | 491 kts | 269° |
| 2026-05-04 21:46 | 56.06762 | -27.88187 | 36315 ft | 490 kts | 269° |
| 2026-05-04 21:47 | 56.06515 | -27.98596 | 36329 ft | 491 kts | 269° |
| 2026-05-04 21:47 | 56.06236 | -28.09919 | 36330 ft | 490 kts | 269° |
| 2026-05-04 21:48 | 56.05950 | -28.21143 | 36082 ft | 492 kts | 269° |
| 2026-05-04 21:48 | 56.05802 | -28.26761 | 36365 ft | 490 kts | 269° |
| 2026-05-04 21:48 | 56.05642 | -28.32764 | 36133 ft | 491 kts | 269° |
| 2026-05-04 21:48 | 56.05489 | -28.38418 | 36303 ft | 492 kts | 269° |
| 2026-05-04 21:49 | 56.05333 | -28.44071 | 36337 ft | 494 kts | 269° |
| 2026-05-04 21:49 | 56.05001 | -28.55770 | 36338 ft | 494 kts | 269° |
| 2026-05-04 21:50 | 56.04665 | -28.67261 | 36364 ft | 493 kts | 269° |
| 2026-05-04 21:50 | 56.04305 | -28.79147 | 36362 ft | 494 kts | 269° |
| 2026-05-04 21:51 | 56.03948 | -28.90611 | 36358 ft | 493 kts | 269° |
| 2026-05-04 21:51 | 56.03575 | -29.02230 | 36353 ft | 493 kts | 269° |
| 2026-05-04 21:52 | 56.03185 | -29.14014 | 36360 ft | 494 kts | 269° |
| 2026-05-04 21:52 | 56.02790 | -29.25633 | 36380 ft | 494 kts | 269° |
| 2026-05-04 21:53 | 56.02380 | -29.37365 | 36364 ft | 493 kts | 269° |
| 2026-05-04 21:53 | 56.01965 | -29.48930 | 36337 ft | 493 kts | 269° |
| 2026-05-04 21:54 | 56.01530 | -29.60702 | 36324 ft | 493 kts | 269° |
| 2026-05-04 21:54 | 56.01094 | -29.72247 | 36330 ft | 493 kts | 268° |
| 2026-05-04 21:55 | 56.00629 | -29.84244 | 36341 ft | 493 kts | 268° |
| 2026-05-04 21:55 | 56.00169 | -29.95819 | 36351 ft | 493 kts | 268° |
| 2026-05-04 21:56 | 55.99960 | -30.07546 | 36363 ft | 489 kts | 277° |
| 2026-05-04 21:56 | 56.00544 | -30.19045 | 36378 ft | 489 kts | 277° |
| 2026-05-04 21:57 | 56.01097 | -30.30893 | 36358 ft | 488 kts | 277° |
| 2026-05-04 21:57 | 56.01577 | -30.42284 | 36380 ft | 489 kts | 277° |
| 2026-05-04 21:58 | 56.02029 | -30.53841 | 36369 ft | 489 kts | 277° |
| 2026-05-04 21:58 | 56.02446 | -30.65070 | 36362 ft | 488 kts | 276° |
| 2026-05-04 21:59 | 56.02867 | -30.76911 | 36372 ft | 489 kts | 276° |
| 2026-05-04 21:59 | 56.03255 | -30.88244 | 36365 ft | 489 kts | 276° |
| 2026-05-04 22:00 | 56.03644 | -30.99992 | 36364 ft | 489 kts | 276° |
| 2026-05-04 22:00 | 56.04010 | -31.11406 | 36358 ft | 488 kts | 276° |
| 2026-05-04 22:01 | 56.04369 | -31.22987 | 36373 ft | 488 kts | 276° |
| 2026-05-04 22:01 | 56.04713 | -31.34391 | 36363 ft | 488 kts | 276° |
| 2026-05-04 22:02 | 56.05054 | -31.46112 | 36498 ft | 486 kts | 276° |
| 2026-05-04 22:02 | 56.05215 | -31.51773 | 36114 ft | 483 kts | 276° |
| 2026-05-04 22:02 | 56.05372 | -31.57389 | 36276 ft | 483 kts | 276° |
| 2026-05-04 22:03 | 56.05693 | -31.69149 | 36361 ft | 486 kts | 275° |
| 2026-05-04 22:03 | 56.05990 | -31.80414 | 36589 ft | 486 kts | 275° |
| 2026-05-04 22:03 | 56.06135 | -31.86086 | 36411 ft | 485 kts | 275° |
| 2026-05-04 22:04 | 56.06281 | -31.91911 | 36364 ft | 483 kts | 275° |
| 2026-05-04 22:04 | 56.06564 | -32.03469 | 36353 ft | 484 kts | 275° |
| 2026-05-04 22:04 | 56.06698 | -32.09093 | 36171 ft | 485 kts | 275° |
| 2026-05-04 22:05 | 56.06838 | -32.15073 | 36348 ft | 486 kts | 276° |
| 2026-05-04 22:05 | 56.07099 | -32.26636 | 36378 ft | 487 kts | 276° |
| 2026-05-04 22:06 | 56.07345 | -32.38013 | 36358 ft | 486 kts | 275° |
| 2026-05-04 22:06 | 56.07583 | -32.49513 | 36331 ft | 485 kts | 276° |
| 2026-05-04 22:07 | 56.07807 | -32.60837 | 36358 ft | 485 kts | 276° |
| 2026-05-04 22:07 | 56.08026 | -32.72405 | 36379 ft | 485 kts | 275° |
| 2026-05-04 22:08 | 56.08233 | -32.83952 | 36374 ft | 485 kts | 275° |
| 2026-05-04 22:08 | 56.08429 | -32.95473 | 36366 ft | 485 kts | 275° |
| 2026-05-04 22:09 | 56.08612 | -33.06892 | 36370 ft | 484 kts | 275° |
| 2026-05-04 22:09 | 56.08786 | -33.18388 | 36352 ft | 485 kts | 275° |
| 2026-05-04 22:10 | 56.08944 | -33.29435 | 36353 ft | 484 kts | 275° |
| 2026-05-04 22:10 | 56.09095 | -33.40832 | 36347 ft | 484 kts | 275° |
| 2026-05-04 22:11 | 56.09226 | -33.51346 | 36345 ft | 483 kts | 275° |
| 2026-05-04 22:11 | 56.09360 | -33.62894 | 36349 ft | 483 kts | 275° |
| 2026-05-04 22:12 | 56.09479 | -33.74092 | 36355 ft | 484 kts | 275° |
| 2026-05-04 22:12 | 56.09591 | -33.85701 | 36346 ft | 483 kts | 275° |
| 2026-05-04 22:13 | 56.09695 | -33.97462 | 36352 ft | 484 kts | 275° |
| 2026-05-04 22:13 | 56.09781 | -34.08516 | 36336 ft | 482 kts | 275° |
| 2026-05-04 22:14 | 56.09860 | -34.19862 | 36347 ft | 481 kts | 275° |
| 2026-05-04 22:14 | 56.09928 | -34.31230 | 36361 ft | 482 kts | 275° |
| 2026-05-04 22:15 | 56.09985 | -34.42385 | 36329 ft | 482 kts | 275° |
| 2026-05-04 22:15 | 56.10032 | -34.53591 | 36352 ft | 480 kts | 275° |
| 2026-05-04 22:16 | 56.10070 | -34.64974 | 36338 ft | 481 kts | 275° |
| 2026-05-04 22:16 | 56.10097 | -34.76494 | 36368 ft | 481 kts | 275° |
| 2026-05-04 22:17 | 56.10114 | -34.88198 | 36359 ft | 482 kts | 275° |
| 2026-05-04 22:17 | 56.10119 | -34.99719 | 36365 ft | 480 kts | 275° |
| 2026-05-04 22:18 | 56.10114 | -35.11427 | 36362 ft | 479 kts | 275° |
| 2026-05-04 22:18 | 56.10099 | -35.22855 | 36358 ft | 483 kts | 275° |
| 2026-05-04 22:19 | 56.10072 | -35.34220 | 36334 ft | 480 kts | 275° |
| 2026-05-04 22:19 | 56.10035 | -35.45532 | 36332 ft | 480 kts | 275° |
| 2026-05-04 22:20 | 56.09989 | -35.56787 | 36340 ft | 480 kts | 275° |
| 2026-05-04 22:20 | 56.09932 | -35.68165 | 36332 ft | 480 kts | 274° |
| 2026-05-04 22:21 | 56.09862 | -35.79834 | 36341 ft | 480 kts | 274° |
| 2026-05-04 22:21 | 56.09784 | -35.91009 | 36334 ft | 478 kts | 274° |
| 2026-05-04 22:22 | 56.09692 | -36.02696 | 36326 ft | 476 kts | 274° |
| 2026-05-04 22:22 | 56.09596 | -36.13812 | 36314 ft | 477 kts | 274° |
| 2026-05-04 22:23 | 56.09485 | -36.25334 | 36327 ft | 479 kts | 274° |
| 2026-05-04 22:23 | 56.09367 | -36.36486 | 36314 ft | 478 kts | 274° |
| 2026-05-04 22:24 | 56.09233 | -36.48055 | 36322 ft | 477 kts | 274° |
| 2026-05-04 22:24 | 56.09098 | -36.59024 | 36323 ft | 476 kts | 274° |
| 2026-05-04 22:25 | 56.08944 | -36.70599 | 36303 ft | 477 kts | 274° |
| 2026-05-04 22:25 | 56.08783 | -36.81823 | 36309 ft | 476 kts | 273° |
| 2026-05-04 22:26 | 56.08604 | -36.93631 | 36321 ft | 477 kts | 273° |
| 2026-05-04 22:26 | 56.08424 | -37.04804 | 36301 ft | 475 kts | 273° |
| 2026-05-04 22:27 | 56.08226 | -37.16455 | 36300 ft | 476 kts | 273° |
| 2026-05-04 22:27 | 56.08026 | -37.27566 | 36290 ft | 475 kts | 273° |
| 2026-05-04 22:28 | 56.07819 | -37.38609 | 36294 ft | 476 kts | 273° |
| 2026-05-04 22:28 | 56.07601 | -37.49614 | 36294 ft | 473 kts | 273° |
| 2026-05-04 22:29 | 56.07372 | -37.60710 | 36288 ft | 476 kts | 273° |
| 2026-05-04 22:29 | 56.07127 | -37.72081 | 36301 ft | 474 kts | 272° |
| 2026-05-04 22:30 | 56.06872 | -37.83448 | 36289 ft | 474 kts | 271° |
| 2026-05-04 22:30 | 56.06611 | -37.94583 | 36289 ft | 474 kts | 272° |
| 2026-05-04 22:31 | 56.06345 | -38.05518 | 36293 ft | 471 kts | 271° |
| 2026-05-04 22:31 | 56.06062 | -38.16805 | 36296 ft | 472 kts | 271° |
| 2026-05-04 22:32 | 56.05758 | -38.28424 | 36295 ft | 471 kts | 271° |
| 2026-05-04 22:32 | 56.05438 | -38.40249 | 36264 ft | 471 kts | 271° |
| 2026-05-04 22:33 | 56.05114 | -38.51804 | 36268 ft | 471 kts | 271° |
| 2026-05-04 22:33 | 56.04774 | -38.63565 | 36268 ft | 471 kts | 271° |
| 2026-05-04 22:34 | 56.04428 | -38.75121 | 36280 ft | 470 kts | 270° |
| 2026-05-04 22:34 | 56.04065 | -38.86896 | 36279 ft | 472 kts | 270° |
| 2026-05-04 22:35 | 56.03697 | -38.98464 | 36240 ft | 467 kts | 270° |
| 2026-05-04 22:35 | 56.03315 | -39.10149 | 36249 ft | 469 kts | 270° |
| 2026-05-04 22:36 | 56.02924 | -39.21724 | 36238 ft | 467 kts | 270° |
| 2026-05-04 22:36 | 56.02522 | -39.33355 | 36229 ft | 468 kts | 270° |
| 2026-05-04 22:37 | 56.02108 | -39.44970 | 36224 ft | 470 kts | 269° |
| 2026-05-04 22:37 | 56.01681 | -39.56668 | 36215 ft | 469 kts | 269° |
| 2026-05-04 22:38 | 56.01247 | -39.68225 | 36222 ft | 471 kts | 269° |
| 2026-05-04 22:38 | 56.00793 | -39.80046 | 36222 ft | 472 kts | 269° |
| 2026-05-04 22:39 | 56.00335 | -39.91649 | 36212 ft | 469 kts | 269° |
| 2026-05-04 22:39 | 55.99779 | -40.03357 | 36211 ft | 472 kts | 267° |
| 2026-05-04 22:40 | 55.99116 | -40.14968 | 36191 ft | 473 kts | 266° |
| 2026-05-04 22:40 | 55.98429 | -40.26701 | 36188 ft | 471 kts | 266° |
| 2026-05-04 22:41 | 55.97738 | -40.38258 | 36184 ft | 473 kts | 266° |
| 2026-05-04 22:41 | 55.97027 | -40.49932 | 36176 ft | 472 kts | 266° |
| 2026-05-04 22:42 | 55.96307 | -40.61568 | 36187 ft | 471 kts | 265° |
| 2026-05-04 22:42 | 55.95576 | -40.73174 | 36169 ft | 474 kts | 265° |
| 2026-05-04 22:43 | 55.94823 | -40.84944 | 36170 ft | 474 kts | 265° |
| 2026-05-04 22:43 | 55.94426 | -40.91077 | 36038 ft | 474 kts | 264° |
| 2026-05-04 22:43 | 55.94059 | -40.96708 | 36005 ft | 473 kts | 264° |
| 2026-05-04 22:43 | 55.93687 | -41.02374 | 36151 ft | 474 kts | 264° |
| 2026-05-04 22:44 | 55.93291 | -41.08364 | 36156 ft | 475 kts | 264° |
| 2026-05-04 22:44 | 55.92510 | -41.20040 | 36055 ft | 476 kts | 264° |
| 2026-05-04 22:44 | 55.92136 | -41.25562 | 36494 ft | 474 kts | 264° |
| 2026-05-04 22:45 | 55.91738 | -41.31418 | 36230 ft | 474 kts | 264° |
| 2026-05-04 22:45 | 55.90960 | -41.42716 | 36128 ft | 473 kts | 264° |
| 2026-05-04 22:45 | 55.90583 | -41.48144 | 36142 ft | 474 kts | 264° |
| 2026-05-04 22:46 | 55.89782 | -41.59554 | 36127 ft | 475 kts | 264° |
| 2026-05-04 22:46 | 55.88982 | -41.70791 | 36118 ft | 474 kts | 263° |
| 2026-05-04 22:47 | 55.88143 | -41.82429 | 36125 ft | 477 kts | 262° |
| 2026-05-04 22:47 | 55.87321 | -41.93676 | 36117 ft | 475 kts | 262° |
| 2026-05-04 22:48 | 55.86468 | -42.05204 | 36101 ft | 478 kts | 262° |
| 2026-05-04 22:48 | 55.85619 | -42.16530 | 36105 ft | 480 kts | 263° |
| 2026-05-04 22:49 | 55.84768 | -42.27728 | 36105 ft | 478 kts | 262° |
| 2026-05-04 22:49 | 55.83906 | -42.38949 | 36079 ft | 478 kts | 262° |
| 2026-05-04 22:50 | 55.83036 | -42.50130 | 36071 ft | 480 kts | 262° |
| 2026-05-04 22:50 | 55.82142 | -42.61484 | 36061 ft | 482 kts | 261° |
| 2026-05-04 22:51 | 55.81242 | -42.72766 | 36057 ft | 481 kts | 260° |
| 2026-05-04 22:51 | 55.80304 | -42.84394 | 36058 ft | 481 kts | 260° |
| 2026-05-04 22:52 | 55.79856 | -42.89901 | 35795 ft | 484 kts | 260° |
| 2026-05-04 22:52 | 55.79384 | -42.95665 | 36021 ft | 483 kts | 260° |
| 2026-05-04 22:52 | 55.78424 | -43.07269 | 36352 ft | 485 kts | 260° |
| 2026-05-04 22:53 | 55.77965 | -43.12783 | 35852 ft | 485 kts | 260° |
| 2026-05-04 22:53 | 55.77483 | -43.18537 | 36040 ft | 483 kts | 260° |
| 2026-05-04 22:53 | 55.76971 | -43.24608 | 36322 ft | 486 kts | 260° |
| 2026-05-04 22:53 | 55.76505 | -43.30105 | 35826 ft | 486 kts | 260° |
| 2026-05-04 22:54 | 55.76036 | -43.35609 | 36014 ft | 484 kts | 259° |
| 2026-05-04 22:54 | 55.75556 | -43.41202 | 36015 ft | 487 kts | 259° |
| 2026-05-04 22:54 | 55.74559 | -43.52727 | 36011 ft | 486 kts | 259° |
| 2026-05-04 22:55 | 55.73582 | -43.63906 | 36016 ft | 488 kts | 259° |
| 2026-05-04 22:55 | 55.72548 | -43.75603 | 36020 ft | 487 kts | 258° |
| 2026-05-04 22:56 | 55.71553 | -43.86724 | 36006 ft | 486 kts | 258° |
| 2026-05-04 22:56 | 55.70486 | -43.98524 | 35983 ft | 490 kts | 258° |
| 2026-05-04 22:57 | 55.69476 | -44.09594 | 35980 ft | 489 kts | 258° |
| 2026-05-04 22:57 | 55.68378 | -44.21482 | 35964 ft | 492 kts | 258° |
| 2026-05-04 22:58 | 55.67359 | -44.32396 | 35959 ft | 490 kts | 258° |
| 2026-05-04 22:58 | 55.66255 | -44.44111 | 35946 ft | 493 kts | 257° |
| 2026-05-04 22:59 | 55.65209 | -44.55091 | 35932 ft | 493 kts | 258° |
| 2026-05-04 22:59 | 55.64099 | -44.66621 | 35935 ft | 494 kts | 257° |
| 2026-05-04 23:00 | 55.63019 | -44.77742 | 35918 ft | 494 kts | 256° |
| 2026-05-04 23:00 | 55.61865 | -44.89496 | 35911 ft | 495 kts | 257° |
| 2026-05-04 23:01 | 55.60738 | -45.00866 | 35910 ft | 492 kts | 256° |
| 2026-05-04 23:01 | 55.59588 | -45.12329 | 35886 ft | 500 kts | 256° |
| 2026-05-04 23:02 | 55.58405 | -45.24031 | 35872 ft | 499 kts | 256° |
| 2026-05-04 23:02 | 55.57251 | -45.35328 | 35867 ft | 499 kts | 255° |
| 2026-05-04 23:03 | 55.56051 | -45.46951 | 35864 ft | 502 kts | 256° |
| 2026-05-04 23:03 | 55.54879 | -45.58207 | 35858 ft | 501 kts | 255° |
| 2026-05-04 23:04 | 55.53647 | -45.69923 | 35850 ft | 502 kts | 255° |
| 2026-05-04 23:04 | 55.52447 | -45.81228 | 35846 ft | 503 kts | 254° |
| 2026-05-04 23:05 | 55.51162 | -45.93220 | 35834 ft | 505 kts | 254° |
| 2026-05-04 23:05 | 55.49939 | -46.04522 | 35838 ft | 503 kts | 255° |
| 2026-05-04 23:06 | 55.48626 | -46.16539 | 35816 ft | 507 kts | 254° |
| 2026-05-04 23:06 | 55.47380 | -46.27851 | 35806 ft | 508 kts | 254° |
| 2026-05-04 23:07 | 55.46064 | -46.39687 | 35789 ft | 507 kts | 253° |
| 2026-05-04 23:07 | 55.44799 | -46.50948 | 35803 ft | 509 kts | 254° |
| 2026-05-04 23:08 | 55.43453 | -46.62832 | 35786 ft | 508 kts | 254° |
| 2026-05-04 23:08 | 55.42190 | -46.73880 | 35777 ft | 510 kts | 252° |
| 2026-05-04 23:09 | 55.40760 | -46.86287 | 35774 ft | 509 kts | 253° |
| 2026-05-04 23:09 | 55.39467 | -46.97400 | 35770 ft | 509 kts | 252° |
| 2026-05-04 23:10 | 55.38029 | -47.09642 | 35756 ft | 511 kts | 252° |
| 2026-05-04 23:10 | 55.36690 | -47.20947 | 35744 ft | 513 kts | 252° |
| 2026-05-04 23:11 | 55.35286 | -47.32704 | 35734 ft | 515 kts | 252° |
| 2026-05-04 23:11 | 55.33907 | -47.44133 | 35717 ft | 515 kts | 252° |
| 2026-05-04 23:12 | 55.32494 | -47.55762 | 35734 ft | 519 kts | 253° |
| 2026-05-04 23:12 | 55.31065 | -47.67422 | 35707 ft | 515 kts | 251° |
| 2026-05-04 23:13 | 55.29648 | -47.78896 | 35687 ft | 507 kts | 251° |
| 2026-05-04 23:13 | 55.28163 | -47.90801 | 35654 ft | 518 kts | 251° |
| 2026-05-04 23:14 | 55.26723 | -48.02263 | 35663 ft | 520 kts | 251° |
| 2026-05-04 23:14 | 55.25161 | -48.14591 | 35698 ft | 521 kts | 251° |
| 2026-05-04 23:15 | 55.23716 | -48.25912 | 35674 ft | 520 kts | 251° |
| 2026-05-04 23:15 | 55.22152 | -48.38038 | 35656 ft | 523 kts | 251° |
| 2026-05-04 23:16 | 55.20682 | -48.49353 | 35655 ft | 523 kts | 250° |
| 2026-05-04 23:16 | 55.19093 | -48.61487 | 35654 ft | 523 kts | 250° |
| 2026-05-04 23:17 | 55.17574 | -48.72985 | 35637 ft | 525 kts | 250° |
| 2026-05-04 23:17 | 55.15925 | -48.85384 | 35615 ft | 521 kts | 249° |
| 2026-05-04 23:18 | 55.14387 | -48.96825 | 35618 ft | 525 kts | 249° |
| 2026-05-04 23:18 | 55.12707 | -49.09227 | 35622 ft | 530 kts | 250° |
| 2026-05-04 23:19 | 55.11148 | -49.20673 | 35590 ft | 528 kts | 250° |
| 2026-05-04 23:19 | 55.09465 | -49.32908 | 35602 ft | 530 kts | 250° |
| 2026-05-04 23:20 | 55.07895 | -49.44247 | 35632 ft | 531 kts | 249° |
| 2026-05-04 23:20 | 55.06180 | -49.56522 | 35624 ft | 534 kts | 249° |
| 2026-05-04 23:21 | 55.04634 | -49.67517 | 35597 ft | 533 kts | 248° |
| 2026-05-04 23:21 | 55.02966 | -49.79292 | 35574 ft | 531 kts | 248° |
| 2026-05-04 23:22 | 55.01307 | -49.90913 | 35582 ft | 529 kts | 248° |
| 2026-05-04 23:22 | 54.99176 | -50.02494 | 35649 ft | 530 kts | 241° |
| 2026-05-04 23:23 | 54.97951 | -50.07814 | 35797 ft | 528 kts | 240° |
| 2026-05-04 23:23 | 54.96688 | -50.13208 | 36192 ft | 526 kts | 240° |
| 2026-05-04 23:23 | 54.95405 | -50.18641 | 36548 ft | 523 kts | 240° |
| 2026-05-04 23:23 | 54.94038 | -50.24374 | 36874 ft | 522 kts | 240° |
| 2026-05-04 23:24 | 54.92609 | -50.30328 | 37246 ft | 520 kts | 241° |
| 2026-05-04 23:24 | 54.91249 | -50.35952 | 37493 ft | 520 kts | 241° |
| 2026-05-04 23:24 | 54.88516 | -50.47184 | 37575 ft | 518 kts | 241° |
| 2026-05-04 23:25 | 54.85696 | -50.58680 | 37544 ft | 517 kts | 241° |
| 2026-05-04 23:25 | 54.83064 | -50.69330 | 37554 ft | 517 kts | 240° |
| 2026-05-04 23:26 | 54.80411 | -50.80011 | 37599 ft | 519 kts | 240° |
| 2026-05-04 23:26 | 54.79171 | -50.84984 | 37452 ft | 518 kts | 240° |
| 2026-05-04 23:26 | 54.77845 | -50.90293 | 37558 ft | 518 kts | 240° |
| 2026-05-04 23:27 | 54.74965 | -51.01762 | 37514 ft | 519 kts | 240° |
| 2026-05-04 23:27 | 54.72304 | -51.12313 | 37507 ft | 519 kts | 240° |
| 2026-05-04 23:28 | 54.69510 | -51.23334 | 37596 ft | 520 kts | 240° |
| 2026-05-04 23:28 | 54.68162 | -51.28628 | 37490 ft | 521 kts | 240° |
| 2026-05-04 23:28 | 54.66805 | -51.33946 | 37532 ft | 523 kts | 241° |
| 2026-05-04 23:29 | 54.63975 | -51.45003 | 37541 ft | 523 kts | 240° |
| 2026-05-04 23:29 | 54.61278 | -51.55486 | 37485 ft | 524 kts | 241° |
| 2026-05-04 23:30 | 54.58420 | -51.66544 | 37464 ft | 522 kts | 240° |
| 2026-05-04 23:30 | 54.55727 | -51.76917 | 37450 ft | 520 kts | 240° |
| 2026-05-04 23:31 | 54.52848 | -51.87950 | 37476 ft | 518 kts | 240° |
| 2026-05-04 23:31 | 54.50072 | -51.98535 | 37490 ft | 519 kts | 240° |
| 2026-05-04 23:32 | 54.47266 | -52.09181 | 37475 ft | 521 kts | 240° |
| 2026-05-04 23:32 | 54.44494 | -52.19655 | 37432 ft | 520 kts | 240° |
| 2026-05-04 23:33 | 54.41728 | -52.30055 | 37431 ft | 523 kts | 240° |
| 2026-05-04 23:33 | 54.38873 | -52.40744 | 37410 ft | 523 kts | 240° |
| 2026-05-04 23:34 | 54.37496 | -52.45879 | 37512 ft | 524 kts | 240° |
| 2026-05-04 23:34 | 54.36119 | -52.51003 | 37422 ft | 522 kts | 240° |
| 2026-05-04 23:34 | 54.33222 | -52.61750 | 37474 ft | 524 kts | 240° |
| 2026-05-04 23:35 | 54.30410 | -52.72134 | 37434 ft | 520 kts | 239° |
| 2026-05-04 23:35 | 54.27367 | -52.83312 | 37380 ft | 522 kts | 240° |
| 2026-05-04 23:36 | 54.24522 | -52.93715 | 37424 ft | 523 kts | 240° |
| 2026-05-04 23:36 | 54.21455 | -53.04884 | 37383 ft | 522 kts | 239° |
| 2026-05-04 23:37 | 54.18576 | -53.15310 | 37452 ft | 525 kts | 240° |
| 2026-05-04 23:37 | 54.15567 | -53.26164 | 37366 ft | 524 kts | 240° |
| 2026-05-04 23:38 | 54.12641 | -53.36666 | 37406 ft | 525 kts | 240° |
| 2026-05-04 23:38 | 54.09633 | -53.47416 | 37381 ft | 524 kts | 240° |
| 2026-05-04 23:39 | 54.06693 | -53.57875 | 37421 ft | 523 kts | 240° |
| 2026-05-04 23:39 | 54.03585 | -53.68880 | 37460 ft | 525 kts | 239° |
| 2026-05-04 23:40 | 54.02087 | -53.74165 | 37348 ft | 524 kts | 239° |
| 2026-05-04 23:40 | 54.00600 | -53.79401 | 37405 ft | 523 kts | 239° |
| 2026-05-04 23:40 | 53.97458 | -53.90422 | 37296 ft | 524 kts | 239° |
| 2026-05-04 23:41 | 53.94470 | -54.00858 | 37340 ft | 524 kts | 239° |
| 2026-05-04 23:41 | 53.91381 | -54.11598 | 37351 ft | 524 kts | 239° |
| 2026-05-04 23:42 | 53.88343 | -54.22108 | 37374 ft | 526 kts | 239° |
| 2026-05-04 23:42 | 53.85306 | -54.32572 | 37357 ft | 526 kts | 239° |
| 2026-05-04 23:43 | 53.82128 | -54.43473 | 37358 ft | 525 kts | 239° |
| 2026-05-04 23:43 | 53.78913 | -54.54448 | 37369 ft | 524 kts | 239° |
| 2026-05-04 23:44 | 53.75699 | -54.65371 | 37324 ft | 525 kts | 239° |
| 2026-05-04 23:44 | 53.72454 | -54.76346 | 37329 ft | 524 kts | 239° |
| 2026-05-04 23:45 | 53.69318 | -54.86903 | 37324 ft | 523 kts | 239° |
| 2026-05-04 23:45 | 53.66198 | -54.97366 | 37322 ft | 522 kts | 239° |
| 2026-05-04 23:46 | 53.63041 | -55.07898 | 37332 ft | 523 kts | 239° |
| 2026-05-04 23:46 | 53.59887 | -55.18378 | 37321 ft | 523 kts | 239° |
| 2026-05-04 23:47 | 53.56710 | -55.28888 | 37329 ft | 523 kts | 239° |
| 2026-05-04 23:47 | 53.53559 | -55.39268 | 37318 ft | 523 kts | 239° |
| 2026-05-04 23:48 | 53.50332 | -55.49849 | 37306 ft | 522 kts | 239° |
| 2026-05-04 23:48 | 53.47170 | -55.60171 | 37309 ft | 522 kts | 239° |
| 2026-05-04 23:49 | 53.43910 | -55.70770 | 37295 ft | 522 kts | 238° |
| 2026-05-04 23:49 | 53.40758 | -55.80973 | 37284 ft | 522 kts | 239° |
| 2026-05-04 23:50 | 53.37384 | -55.91845 | 37289 ft | 522 kts | 238° |
| 2026-05-04 23:50 | 53.34161 | -56.02187 | 37283 ft | 524 kts | 239° |
| 2026-05-04 23:51 | 53.30868 | -56.12706 | 37274 ft | 522 kts | 239° |
| 2026-05-04 23:51 | 53.27658 | -56.22918 | 37270 ft | 523 kts | 239° |
| 2026-05-04 23:52 | 53.24378 | -56.33308 | 37278 ft | 522 kts | 238° |
| 2026-05-04 23:52 | 53.21311 | -56.42981 | 37230 ft | 523 kts | 239° |
| 2026-05-04 23:53 | 53.18115 | -56.53023 | 37258 ft | 522 kts | 239° |
| 2026-05-04 23:53 | 53.15052 | -56.62607 | 37233 ft | 523 kts | 239° |
| 2026-05-04 23:54 | 53.11741 | -56.72924 | 37246 ft | 524 kts | 238° |
| 2026-05-04 23:54 | 53.08668 | -56.82474 | 37249 ft | 523 kts | 238° |
| 2026-05-04 23:55 | 53.05392 | -56.92629 | 37201 ft | 523 kts | 238° |
| 2026-05-04 23:56 | 53.00789 | -57.06827 | 37186 ft | 523 kts | 238° |
| 2026-05-04 23:56 | 52.97389 | -57.17262 | 37221 ft | 524 kts | 238° |
| 2026-05-04 23:57 | 52.94239 | -57.26890 | 37247 ft | 522 kts | 238° |
| 2026-05-04 23:57 | 52.90727 | -57.37578 | 37203 ft | 522 kts | 239° |
| 2026-05-04 23:58 | 52.87122 | -57.48502 | 37211 ft | 522 kts | 239° |
| 2026-05-04 23:58 | 52.83526 | -57.59351 | 37202 ft | 521 kts | 239° |
| 2026-05-04 23:59 | 52.79995 | -57.69959 | 37184 ft | 520 kts | 238° |
| 2026-05-04 23:59 | 52.76441 | -57.80589 | 37167 ft | 521 kts | 238° |
| 2026-05-05 00:00 | 52.73010 | -57.90809 | 37170 ft | 520 kts | 238° |
| 2026-05-05 00:00 | 52.69456 | -58.01349 | 37213 ft | 520 kts | 238° |
| 2026-05-05 00:01 | 52.66039 | -58.11441 | 37215 ft | 518 kts | 238° |
| 2026-05-05 00:01 | 52.62466 | -58.21952 | 37253 ft | 518 kts | 238° |
| 2026-05-05 00:02 | 52.59004 | -58.32092 | 37233 ft | 521 kts | 238° |
| 2026-05-05 00:02 | 52.55452 | -58.42455 | 37247 ft | 519 kts | 238° |
| 2026-05-05 00:03 | 52.51989 | -58.52516 | 37221 ft | 518 kts | 238° |
| 2026-05-05 00:03 | 52.48380 | -58.62956 | 37214 ft | 518 kts | 238° |
| 2026-05-05 00:04 | 52.44727 | -58.73482 | 37234 ft | 518 kts | 238° |
| 2026-05-05 00:04 | 52.41105 | -58.83872 | 37226 ft | 517 kts | 238° |
| 2026-05-05 00:05 | 52.37599 | -58.93892 | 37213 ft | 518 kts | 238° |
| 2026-05-05 00:05 | 52.33975 | -59.04205 | 37232 ft | 518 kts | 238° |
| 2026-05-05 00:06 | 52.30478 | -59.14115 | 37223 ft | 519 kts | 238° |
| 2026-05-05 00:06 | 52.26871 | -59.24299 | 37220 ft | 519 kts | 238° |
| 2026-05-05 00:07 | 52.23379 | -59.34117 | 37202 ft | 520 kts | 238° |
| 2026-05-05 00:07 | 52.19747 | -59.44287 | 37227 ft | 521 kts | 238° |
| 2026-05-05 00:08 | 52.16248 | -59.54050 | 37232 ft | 521 kts | 238° |
| 2026-05-05 00:08 | 52.12572 | -59.64263 | 37213 ft | 521 kts | 238° |
| 2026-05-05 00:09 | 52.08855 | -59.74551 | 37200 ft | 520 kts | 237° |
| 2026-05-05 00:09 | 52.05410 | -59.84047 | 37205 ft | 519 kts | 238° |
| 2026-05-05 00:10 | 52.01797 | -59.93966 | 37201 ft | 520 kts | 237° |
| 2026-05-05 00:10 | 51.98080 | -60.04134 | 37218 ft | 519 kts | 237° |
| 2026-05-05 00:11 | 51.94508 | -60.13863 | 37230 ft | 520 kts | 237° |
| 2026-05-05 00:11 | 51.91040 | -60.23277 | 37225 ft | 521 kts | 238° |
| 2026-05-05 00:12 | 51.87351 | -60.33251 | 37236 ft | 523 kts | 238° |
| 2026-05-05 00:12 | 51.83734 | -60.42991 | 37243 ft | 521 kts | 238° |
| 2026-05-05 00:13 | 51.80118 | -60.52693 | 37241 ft | 520 kts | 238° |
| 2026-05-05 00:13 | 51.76367 | -60.62718 | 37231 ft | 519 kts | 238° |
| 2026-05-05 00:14 | 51.72636 | -60.72652 | 37234 ft | 516 kts | 237° |
| 2026-05-05 00:14 | 51.68816 | -60.82782 | 37228 ft | 516 kts | 237° |
| 2026-05-05 00:15 | 51.65199 | -60.92333 | 37233 ft | 520 kts | 237° |
| 2026-05-05 00:15 | 51.61433 | -61.02245 | 37233 ft | 517 kts | 237° |
| 2026-05-05 00:16 | 51.57822 | -61.11712 | 37244 ft | 515 kts | 237° |
| 2026-05-05 00:16 | 51.54066 | -61.21519 | 37237 ft | 515 kts | 237° |
| 2026-05-05 00:17 | 51.50462 | -61.30899 | 37273 ft | 513 kts | 238° |
| 2026-05-05 00:17 | 51.46711 | -61.40622 | 37264 ft | 514 kts | 237° |
| 2026-05-05 00:18 | 51.43080 | -61.49998 | 37269 ft | 512 kts | 238° |
| 2026-05-05 00:18 | 51.39307 | -61.59706 | 37282 ft | 512 kts | 238° |
| 2026-05-05 00:19 | 51.35549 | -61.69340 | 37287 ft | 513 kts | 237° |
| 2026-05-05 00:19 | 51.31612 | -61.79393 | 37292 ft | 511 kts | 237° |
| 2026-05-05 00:20 | 51.27998 | -61.88589 | 37296 ft | 512 kts | 237° |
| 2026-05-05 00:20 | 51.24205 | -61.98202 | 37281 ft | 513 kts | 237° |
| 2026-05-05 00:21 | 51.20790 | -62.06829 | 37295 ft | 511 kts | 237° |
| 2026-05-05 00:21 | 51.17209 | -62.15844 | 37299 ft | 511 kts | 237° |
| 2026-05-05 00:22 | 51.13709 | -62.24623 | 37304 ft | 511 kts | 238° |
| 2026-05-05 00:22 | 51.09744 | -62.34534 | 37333 ft | 512 kts | 238° |
| 2026-05-05 00:23 | 51.05930 | -62.44031 | 37317 ft | 513 kts | 238° |
| 2026-05-05 00:23 | 51.01979 | -62.53834 | 37338 ft | 512 kts | 238° |
| 2026-05-05 00:24 | 50.98141 | -62.63320 | 37327 ft | 512 kts | 238° |
| 2026-05-05 00:24 | 50.94103 | -62.73263 | 37342 ft | 513 kts | 237° |
| 2026-05-05 00:25 | 50.90241 | -62.82739 | 37348 ft | 512 kts | 237° |
| 2026-05-05 00:25 | 50.86182 | -62.92659 | 37323 ft | 512 kts | 237° |
| 2026-05-05 00:26 | 50.82289 | -63.02139 | 37359 ft | 514 kts | 237° |
| 2026-05-05 00:26 | 50.78196 | -63.12071 | 37365 ft | 514 kts | 237° |
| 2026-05-05 00:27 | 50.74326 | -63.21424 | 37378 ft | 513 kts | 237° |
| 2026-05-05 00:27 | 50.70270 | -63.31193 | 37392 ft | 512 kts | 237° |
| 2026-05-05 00:28 | 50.66405 | -63.40465 | 37377 ft | 513 kts | 237° |
| 2026-05-05 00:28 | 50.62336 | -63.50194 | 37395 ft | 512 kts | 237° |
| 2026-05-05 00:29 | 50.58457 | -63.59434 | 37416 ft | 513 kts | 238° |
| 2026-05-05 00:29 | 50.54419 | -63.69019 | 37409 ft | 513 kts | 237° |
| 2026-05-05 00:30 | 50.50445 | -63.78416 | 37415 ft | 513 kts | 237° |
| 2026-05-05 00:30 | 50.46402 | -63.87944 | 37440 ft | 513 kts | 237° |
| 2026-05-05 00:31 | 50.42475 | -63.97164 | 37451 ft | 513 kts | 237° |
| 2026-05-05 00:31 | 50.38399 | -64.06701 | 37443 ft | 512 kts | 237° |
| 2026-05-05 00:32 | 50.34452 | -64.15903 | 37453 ft | 514 kts | 237° |
| 2026-05-05 00:32 | 50.30356 | -64.25418 | 37468 ft | 513 kts | 237° |
| 2026-05-05 00:33 | 50.26390 | -64.34600 | 37453 ft | 513 kts | 237° |
| 2026-05-05 00:33 | 50.22257 | -64.44132 | 37499 ft | 512 kts | 237° |
| 2026-05-05 00:34 | 50.18319 | -64.53183 | 37495 ft | 510 kts | 237° |
| 2026-05-05 00:34 | 50.14245 | -64.62516 | 37505 ft | 510 kts | 237° |
| 2026-05-05 00:35 | 50.10080 | -64.72021 | 37539 ft | 509 kts | 236° |
| 2026-05-05 00:35 | 50.06250 | -64.80731 | 37506 ft | 511 kts | 236° |
| 2026-05-05 00:36 | 50.02409 | -64.89440 | 37534 ft | 510 kts | 236° |
| 2026-05-05 00:36 | 49.98488 | -64.98299 | 37556 ft | 508 kts | 236° |
| 2026-05-05 00:37 | 49.94489 | -65.07303 | 37543 ft | 509 kts | 236° |
| 2026-05-05 00:37 | 49.90368 | -65.16551 | 37557 ft | 510 kts | 236° |
| 2026-05-05 00:38 | 49.86195 | -65.25883 | 37528 ft | 509 kts | 236° |
| 2026-05-05 00:38 | 49.82125 | -65.34953 | 37570 ft | 510 kts | 236° |
| 2026-05-05 00:39 | 49.78068 | -65.43962 | 37577 ft | 508 kts | 236° |
| 2026-05-05 00:39 | 49.73941 | -65.53096 | 37583 ft | 508 kts | 236° |
| 2026-05-05 00:40 | 49.69896 | -65.62020 | 37546 ft | 509 kts | 236° |
| 2026-05-05 00:40 | 49.65795 | -65.71034 | 37585 ft | 508 kts | 235° |
| 2026-05-05 00:41 | 49.61681 | -65.80047 | 37587 ft | 508 kts | 235° |
| 2026-05-05 00:41 | 49.57746 | -65.88641 | 37621 ft | 507 kts | 235° |
| 2026-05-05 00:42 | 49.53848 | -65.97124 | 37634 ft | 508 kts | 235° |
| 2026-05-05 00:42 | 49.49723 | -66.06074 | 37643 ft | 508 kts | 235° |
| 2026-05-05 00:43 | 49.45643 | -66.14896 | 37601 ft | 507 kts | 235° |
| 2026-05-05 00:43 | 49.41472 | -66.23885 | 37614 ft | 508 kts | 235° |
| 2026-05-05 00:44 | 49.37392 | -66.32647 | 37642 ft | 507 kts | 235° |
| 2026-05-05 00:44 | 49.33215 | -66.41589 | 37618 ft | 507 kts | 236° |
| 2026-05-05 00:45 | 49.29136 | -66.50294 | 37639 ft | 507 kts | 236° |
| 2026-05-05 00:45 | 49.24932 | -66.59234 | 37631 ft | 506 kts | 236° |
| 2026-05-05 00:46 | 49.21048 | -66.67469 | 37669 ft | 506 kts | 235° |
| 2026-05-05 00:46 | 49.16853 | -66.76334 | 37647 ft | 507 kts | 235° |
| 2026-05-05 00:47 | 49.12686 | -66.85109 | 37670 ft | 506 kts | 235° |
| 2026-05-05 00:47 | 49.08470 | -66.93959 | 37671 ft | 508 kts | 235° |
| 2026-05-05 00:48 | 49.04325 | -67.02633 | 37683 ft | 506 kts | 235° |
| 2026-05-05 00:48 | 49.00406 | -67.10808 | 37677 ft | 506 kts | 235° |
| 2026-05-05 00:49 | 48.96427 | -67.19080 | 37711 ft | 504 kts | 235° |
| 2026-05-05 00:49 | 48.92275 | -67.27689 | 37700 ft | 505 kts | 235° |
| 2026-05-05 00:50 | 48.88086 | -67.36345 | 37677 ft | 504 kts | 236° |
| 2026-05-05 00:50 | 48.83852 | -67.45064 | 37702 ft | 504 kts | 236° |
| 2026-05-05 00:51 | 48.79590 | -67.53815 | 37659 ft | 504 kts | 235° |
| 2026-05-05 00:51 | 48.75351 | -67.62488 | 37683 ft | 504 kts | 235° |
| 2026-05-05 00:52 | 48.71208 | -67.70939 | 37705 ft | 502 kts | 235° |
| 2026-05-05 00:52 | 48.67151 | -67.79188 | 37694 ft | 501 kts | 235° |
| 2026-05-05 00:53 | 48.63078 | -67.87445 | 37703 ft | 501 kts | 235° |
| 2026-05-05 00:53 | 48.59078 | -67.95531 | 37703 ft | 503 kts | 235° |
| 2026-05-05 00:54 | 48.55787 | -68.02165 | 37705 ft | 502 kts | 235° |
| 2026-05-05 00:54 | 48.51623 | -68.10535 | 37682 ft | 503 kts | 235° |
| 2026-05-05 00:55 | 48.47772 | -68.18250 | 37662 ft | 500 kts | 235° |
| 2026-05-05 00:55 | 48.43532 | -68.26723 | 37713 ft | 500 kts | 235° |
| 2026-05-05 00:56 | 48.39372 | -68.35008 | 37739 ft | 502 kts | 235° |
| 2026-05-05 00:56 | 48.35081 | -68.43528 | 37696 ft | 498 kts | 235° |
| 2026-05-05 00:57 | 48.31206 | -68.51200 | 37698 ft | 500 kts | 235° |
| 2026-05-05 00:57 | 48.27172 | -68.59164 | 37746 ft | 501 kts | 235° |
| 2026-05-05 00:58 | 48.23166 | -68.67049 | 37693 ft | 501 kts | 234° |
| 2026-05-05 00:58 | 48.19104 | -68.75020 | 37719 ft | 497 kts | 234° |
| 2026-05-05 00:59 | 48.15218 | -68.82624 | 37720 ft | 499 kts | 234° |
| 2026-05-05 00:59 | 48.11308 | -68.90254 | 37726 ft | 496 kts | 235° |
| 2026-05-05 01:00 | 48.07312 | -68.98030 | 37724 ft | 498 kts | 235° |
| 2026-05-05 01:00 | 48.03374 | -69.05672 | 37707 ft | 499 kts | 235° |
| 2026-05-05 01:01 | 47.99372 | -69.13412 | 37695 ft | 495 kts | 235° |
| 2026-05-05 01:01 | 47.95443 | -69.20994 | 37706 ft | 497 kts | 235° |
| 2026-05-05 01:02 | 47.91406 | -69.28760 | 37740 ft | 497 kts | 235° |
| 2026-05-05 01:02 | 47.87351 | -69.36539 | 37690 ft | 493 kts | 235° |
| 2026-05-05 01:03 | 47.83167 | -69.44544 | 37717 ft | 495 kts | 235° |
| 2026-05-05 01:03 | 47.78870 | -69.52739 | 37747 ft | 494 kts | 236° |
| 2026-05-05 01:04 | 47.74640 | -69.60940 | 37741 ft | 491 kts | 237° |
| 2026-05-05 01:04 | 47.68912 | -69.72405 | 37782 ft | 492 kts | 236° |
| 2026-05-05 01:05 | 47.64939 | -69.80341 | 37726 ft | 493 kts | 237° |
| 2026-05-05 01:05 | 47.60696 | -69.88793 | 37732 ft | 491 kts | 236° |
| 2026-05-05 01:06 | 47.56628 | -69.96876 | 37751 ft | 491 kts | 237° |
| 2026-05-05 01:06 | 47.52391 | -70.05269 | 37768 ft | 493 kts | 236° |
| 2026-05-05 01:07 | 47.48347 | -70.13256 | 37727 ft | 489 kts | 237° |
| 2026-05-05 01:07 | 47.44185 | -70.21452 | 37750 ft | 487 kts | 237° |
| 2026-05-05 01:08 | 47.40140 | -70.29398 | 37758 ft | 488 kts | 237° |
| 2026-05-05 01:08 | 47.35920 | -70.37659 | 37743 ft | 488 kts | 237° |
| 2026-05-05 01:09 | 47.31892 | -70.45523 | 37735 ft | 485 kts | 237° |
| 2026-05-05 01:09 | 47.27648 | -70.53786 | 37743 ft | 487 kts | 237° |
| 2026-05-05 01:10 | 47.23588 | -70.61665 | 37759 ft | 484 kts | 237° |
| 2026-05-05 01:10 | 47.19425 | -70.69723 | 37733 ft | 486 kts | 236° |
| 2026-05-05 01:11 | 47.15252 | -70.77775 | 37782 ft | 484 kts | 237° |
| 2026-05-05 01:11 | 47.11075 | -70.85810 | 37732 ft | 484 kts | 237° |
| 2026-05-05 01:12 | 47.06907 | -70.93808 | 37745 ft | 483 kts | 236° |
| 2026-05-05 01:12 | 47.02769 | -71.01723 | 37771 ft | 483 kts | 236° |
| 2026-05-05 01:13 | 46.98635 | -71.09609 | 37759 ft | 483 kts | 237° |
| 2026-05-05 01:13 | 46.94645 | -71.17197 | 37757 ft | 483 kts | 237° |
| 2026-05-05 01:14 | 46.90495 | -71.25069 | 37767 ft | 484 kts | 237° |
| 2026-05-05 01:14 | 46.86335 | -71.32938 | 37768 ft | 483 kts | 237° |
| 2026-05-05 01:15 | 46.82149 | -71.40830 | 37767 ft | 481 kts | 237° |
| 2026-05-05 01:15 | 46.77913 | -71.48798 | 37811 ft | 484 kts | 237° |
| 2026-05-05 01:16 | 46.73609 | -71.56730 | 37756 ft | 483 kts | 233° |
| 2026-05-05 01:16 | 46.68570 | -71.62981 | 37774 ft | 494 kts | 217° |
| 2026-05-05 01:17 | 46.62897 | -71.67084 | 37654 ft | 503 kts | 208° |
| 2026-05-05 01:17 | 46.60301 | -71.68690 | 37767 ft | 502 kts | 207° |
| 2026-05-05 01:17 | 46.57464 | -71.70428 | 37749 ft | 503 kts | 207° |
| 2026-05-05 01:18 | 46.50773 | -71.74495 | 37748 ft | 503 kts | 207° |
| 2026-05-05 01:18 | 46.45013 | -71.77972 | 37756 ft | 504 kts | 207° |
| 2026-05-05 01:19 | 46.38359 | -71.81967 | 37728 ft | 503 kts | 207° |
| 2026-05-05 01:19 | 46.31981 | -71.85781 | 37729 ft | 503 kts | 207° |
| 2026-05-05 01:20 | 46.26150 | -71.89257 | 37718 ft | 502 kts | 207° |
| 2026-05-05 01:20 | 46.20456 | -71.92642 | 37729 ft | 503 kts | 207° |
| 2026-05-05 01:21 | 46.14312 | -71.96286 | 37724 ft | 504 kts | 207° |
| 2026-05-05 01:21 | 46.08265 | -71.99863 | 37724 ft | 505 kts | 207° |
| 2026-05-05 01:22 | 46.02099 | -72.03500 | 37710 ft | 502 kts | 207° |
| 2026-05-05 01:22 | 45.95672 | -72.06266 | 37701 ft | 514 kts | 193° |
| 2026-05-05 01:23 | 45.88521 | -72.06319 | 37718 ft | 504 kts | 175° |
| 2026-05-05 01:23 | 45.81817 | -72.03348 | 37788 ft | 506 kts | 157° |
| 2026-05-05 01:24 | 45.75539 | -71.98790 | 37695 ft | 506 kts | 164° |
| 2026-05-05 01:24 | 45.68913 | -71.96730 | 37729 ft | 497 kts | 181° |
| 2026-05-05 01:25 | 45.62314 | -71.97375 | 37759 ft | 484 kts | 197° |
| 2026-05-05 01:25 | 45.56138 | -72.00528 | 37735 ft | 474 kts | 211° |
| 2026-05-05 01:26 | 45.50278 | -72.04676 | 37729 ft | 472 kts | 212° |
| 2026-05-05 01:26 | 45.44553 | -72.08739 | 37752 ft | 473 kts | 212° |
| 2026-05-05 01:27 | 45.38747 | -72.12846 | 37752 ft | 470 kts | 212° |
| 2026-05-05 01:27 | 45.33078 | -72.16850 | 37762 ft | 472 kts | 212° |
| 2026-05-05 01:28 | 45.27369 | -72.20872 | 37745 ft | 471 kts | 212° |
| 2026-05-05 01:28 | 45.21729 | -72.24837 | 37814 ft | 473 kts | 212° |
| 2026-05-05 01:29 | 45.16032 | -72.28831 | 37772 ft | 468 kts | 212° |
| 2026-05-05 01:29 | 45.10461 | -72.32732 | 37766 ft | 472 kts | 212° |
| 2026-05-05 01:30 | 45.04773 | -72.36702 | 37737 ft | 468 kts | 212° |
| 2026-05-05 01:30 | 44.99219 | -72.40572 | 37752 ft | 471 kts | 212° |
| 2026-05-05 01:31 | 44.93552 | -72.44513 | 37789 ft | 471 kts | 212° |
| 2026-05-05 01:31 | 44.87842 | -72.48473 | 37764 ft | 468 kts | 212° |
| 2026-05-05 01:32 | 44.82067 | -72.52472 | 37799 ft | 471 kts | 212° |
| 2026-05-05 01:32 | 44.76467 | -72.56338 | 37776 ft | 471 kts | 212° |
| 2026-05-05 01:33 | 44.70837 | -72.60217 | 37794 ft | 469 kts | 212° |
| 2026-05-05 01:33 | 44.65274 | -72.64043 | 37737 ft | 469 kts | 212° |
| 2026-05-05 01:34 | 44.59446 | -72.68042 | 37830 ft | 470 kts | 212° |
| 2026-05-05 01:34 | 44.53912 | -72.71830 | 37786 ft | 469 kts | 212° |
| 2026-05-05 01:35 | 44.48548 | -72.75495 | 37796 ft | 468 kts | 212° |
| 2026-05-05 01:35 | 44.43211 | -72.79134 | 37762 ft | 470 kts | 211° |
| 2026-05-05 01:36 | 44.37746 | -72.82853 | 37796 ft | 469 kts | 211° |
| 2026-05-05 01:36 | 44.32090 | -72.86692 | 37761 ft | 469 kts | 212° |
| 2026-05-05 01:37 | 44.26404 | -72.90546 | 37799 ft | 469 kts | 212° |
| 2026-05-05 01:37 | 44.20707 | -72.94397 | 37810 ft | 470 kts | 211° |
| 2026-05-05 01:38 | 44.14994 | -72.98248 | 37745 ft | 466 kts | 212° |
| 2026-05-05 01:38 | 44.09262 | -73.02108 | 37842 ft | 469 kts | 212° |
| 2026-05-05 01:39 | 44.03690 | -73.05850 | 37798 ft | 467 kts | 212° |
| 2026-05-05 01:39 | 43.98259 | -73.09492 | 37795 ft | 469 kts | 212° |
| 2026-05-05 01:40 | 43.92437 | -73.13386 | 37785 ft | 470 kts | 211° |
| 2026-05-05 01:40 | 43.86415 | -73.17403 | 37820 ft | 467 kts | 212° |
| 2026-05-05 01:41 | 43.80109 | -73.21601 | 37564 ft | 463 kts | 212° |
| 2026-05-05 01:41 | 43.77068 | -73.23622 | 36764 ft | 466 kts | 212° |
| 2026-05-05 01:41 | 43.74118 | -73.25581 | 36037 ft | 469 kts | 212° |
| 2026-05-05 01:42 | 43.71055 | -73.27615 | 35250 ft | 474 kts | 213° |
| 2026-05-05 01:42 | 43.67923 | -73.29693 | 34263 ft | 479 kts | 213° |
| 2026-05-05 01:42 | 43.64940 | -73.31669 | 33334 ft | 481 kts | 212° |
| 2026-05-05 01:42 | 43.62116 | -73.33536 | 32542 ft | 482 kts | 212° |
| 2026-05-05 01:43 | 43.58994 | -73.35597 | 31626 ft | 482 kts | 211° |
| 2026-05-05 01:43 | 43.55917 | -73.37627 | 30724 ft | 483 kts | 211° |
| 2026-05-05 01:43 | 43.52832 | -73.39658 | 30080 ft | 478 kts | 211° |
| 2026-05-05 01:43 | 43.49838 | -73.41624 | 29621 ft | 469 kts | 211° |
| 2026-05-05 01:44 | 43.46954 | -73.43516 | 29118 ft | 463 kts | 211° |
| 2026-05-05 01:44 | 43.43958 | -73.45481 | 28553 ft | 457 kts | 211° |
| 2026-05-05 01:44 | 43.41189 | -73.47295 | 28015 ft | 452 kts | 211° |
| 2026-05-05 01:44 | 43.38453 | -73.49087 | 27481 ft | 447 kts | 211° |
| 2026-05-05 01:45 | 43.35725 | -73.50871 | 26947 ft | 441 kts | 211° |
| 2026-05-05 01:45 | 43.32948 | -73.52686 | 26409 ft | 436 kts | 211° |
| 2026-05-05 01:45 | 43.30162 | -73.54506 | 25858 ft | 431 kts | 211° |
| 2026-05-05 01:45 | 43.27474 | -73.56261 | 25322 ft | 426 kts | 211° |
| 2026-05-05 01:46 | 43.24831 | -73.57986 | 24779 ft | 422 kts | 211° |
| 2026-05-05 01:46 | 43.22266 | -73.59659 | 24236 ft | 418 kts | 211° |
| 2026-05-05 01:46 | 43.19582 | -73.61287 | 23830 ft | 416 kts | 205° |
| 2026-05-05 01:46 | 43.16783 | -73.62542 | 23810 ft | 428 kts | 203° |
| 2026-05-05 01:47 | 43.14041 | -73.63715 | 23805 ft | 428 kts | 203° |
| 2026-05-05 01:47 | 43.11196 | -73.64926 | 23806 ft | 427 kts | 203° |
| 2026-05-05 01:47 | 43.08418 | -73.66106 | 23823 ft | 427 kts | 202° |
| 2026-05-05 01:47 | 43.06842 | -73.66775 | 23824 ft | 427 kts | 202° |
| 2026-05-05 01:48 | 43.03264 | -73.68292 | 23820 ft | 426 kts | 202° |
| 2026-05-05 01:48 | 43.00557 | -73.69437 | 23709 ft | 421 kts | 202° |
| 2026-05-05 01:48 | 42.97867 | -73.70573 | 23241 ft | 416 kts | 202° |
| 2026-05-05 01:48 | 42.95125 | -73.71732 | 22591 ft | 415 kts | 202° |
| 2026-05-05 01:49 | 42.92352 | -73.72903 | 21952 ft | 413 kts | 202° |
| 2026-05-05 01:49 | 42.89735 | -73.74006 | 21429 ft | 409 kts | 202° |
| 2026-05-05 01:49 | 42.86941 | -73.75182 | 20825 ft | 406 kts | 202° |
| 2026-05-05 01:49 | 42.84284 | -73.76301 | 20287 ft | 402 kts | 202° |
| 2026-05-05 01:50 | 42.81665 | -73.77402 | 19724 ft | 399 kts | 202° |
| 2026-05-05 01:50 | 42.79104 | -73.78477 | 19204 ft | 395 kts | 202° |
| 2026-05-05 01:50 | 42.76470 | -73.79584 | 18663 ft | 391 kts | 202° |
| 2026-05-05 01:50 | 42.73910 | -73.80661 | 18146 ft | 387 kts | 202° |
| 2026-05-05 01:51 | 42.71429 | -73.81771 | 17596 ft | 384 kts | 203° |
| 2026-05-05 01:51 | 42.68949 | -73.82893 | 17084 ft | 380 kts | 203° |
| 2026-05-05 01:51 | 42.66481 | -73.84008 | 16545 ft | 377 kts | 203° |
| 2026-05-05 01:51 | 42.64027 | -73.85113 | 16044 ft | 374 kts | 203° |
| 2026-05-05 01:52 | 42.61612 | -73.86198 | 15906 ft | 371 kts | 203° |
| 2026-05-05 01:52 | 42.59214 | -73.87277 | 15897 ft | 374 kts | 203° |
| 2026-05-05 01:52 | 42.56669 | -73.88418 | 15898 ft | 375 kts | 203° |
| 2026-05-05 01:52 | 42.54205 | -73.89520 | 15895 ft | 374 kts | 203° |
| 2026-05-05 01:53 | 42.51761 | -73.90613 | 15903 ft | 375 kts | 203° |
| 2026-05-05 01:53 | 42.49318 | -73.91703 | 15942 ft | 374 kts | 203° |
| 2026-05-05 01:53 | 42.46762 | -73.92844 | 15959 ft | 375 kts | 203° |
| 2026-05-05 01:53 | 42.44315 | -73.93934 | 15933 ft | 375 kts | 203° |
| 2026-05-05 01:54 | 42.41846 | -73.95033 | 15931 ft | 374 kts | 203° |
| 2026-05-05 01:54 | 42.39343 | -73.96147 | 15931 ft | 375 kts | 203° |
| 2026-05-05 01:54 | 42.36812 | -73.97272 | 15936 ft | 375 kts | 203° |
| 2026-05-05 01:54 | 42.34324 | -73.98377 | 15933 ft | 375 kts | 203° |
| 2026-05-05 01:55 | 42.31911 | -73.99448 | 15936 ft | 375 kts | 203° |
| 2026-05-05 01:55 | 42.29428 | -74.00549 | 15936 ft | 376 kts | 203° |
| 2026-05-05 01:55 | 42.26907 | -74.01666 | 15933 ft | 374 kts | 203° |
| 2026-05-05 01:55 | 42.24414 | -74.02769 | 15940 ft | 377 kts | 202° |
| 2026-05-05 01:56 | 42.21919 | -74.03873 | 15927 ft | 371 kts | 202° |
| 2026-05-05 01:56 | 42.19460 | -74.04959 | 15940 ft | 375 kts | 202° |
| 2026-05-05 01:56 | 42.16953 | -74.06068 | 15930 ft | 374 kts | 203° |
| 2026-05-05 01:56 | 42.14459 | -74.07169 | 15922 ft | 376 kts | 203° |
| 2026-05-05 01:57 | 42.11991 | -74.08257 | 15933 ft | 375 kts | 203° |
| 2026-05-05 01:57 | 42.09532 | -74.09341 | 15926 ft | 375 kts | 203° |
| 2026-05-05 01:57 | 42.06967 | -74.10469 | 15930 ft | 375 kts | 203° |
| 2026-05-05 01:57 | 42.04485 | -74.11561 | 15932 ft | 374 kts | 203° |
| 2026-05-05 01:58 | 42.02021 | -74.12643 | 15941 ft | 376 kts | 203° |
| 2026-05-05 01:58 | 41.99510 | -74.13744 | 15935 ft | 374 kts | 203° |
| 2026-05-05 01:58 | 41.97006 | -74.14842 | 15920 ft | 376 kts | 203° |
| 2026-05-05 01:58 | 41.94514 | -74.15933 | 15961 ft | 376 kts | 203° |
| 2026-05-05 01:59 | 41.92037 | -74.17017 | 15935 ft | 375 kts | 202° |
| 2026-05-05 01:59 | 41.89521 | -74.18117 | 15919 ft | 376 kts | 202° |
| 2026-05-05 01:59 | 41.86868 | -74.19276 | 15942 ft | 374 kts | 203° |
| 2026-05-05 01:59 | 41.84376 | -74.20361 | 15792 ft | 364 kts | 203° |
| 2026-05-05 02:00 | 41.82013 | -74.21390 | 15053 ft | 356 kts | 202° |
| 2026-05-05 02:00 | 41.79756 | -74.22372 | 14581 ft | 340 kts | 203° |
| 2026-05-05 02:00 | 41.77591 | -74.23314 | 14212 ft | 322 kts | 203° |
| 2026-05-05 02:00 | 41.75514 | -74.24216 | 14023 ft | 303 kts | 204° |
| 2026-05-05 02:01 | 41.73586 | -74.25056 | 13884 ft | 283 kts | 204° |
| 2026-05-05 02:01 | 41.71745 | -74.25860 | 13413 ft | 281 kts | 204° |
| 2026-05-05 02:01 | 41.69887 | -74.26674 | 12647 ft | 281 kts | 204° |
| 2026-05-05 02:01 | 41.68079 | -74.27460 | 12089 ft | 277 kts | 204° |
| 2026-05-05 02:02 | 41.66265 | -74.28248 | 11505 ft | 275 kts | 203° |
| 2026-05-05 02:02 | 41.64464 | -74.29030 | 10918 ft | 273 kts | 203° |
| 2026-05-05 02:02 | 41.62652 | -74.29816 | 10424 ft | 268 kts | 203° |
| 2026-05-05 02:02 | 41.60860 | -74.30592 | 10223 ft | 269 kts | 203° |
| 2026-05-05 02:03 | 41.59098 | -74.31356 | 10094 ft | 269 kts | 203° |
| 2026-05-05 02:03 | 41.57315 | -74.32128 | 9939 ft | 269 kts | 202° |
| 2026-05-05 02:03 | 41.55526 | -74.32903 | 9573 ft | 271 kts | 203° |
| 2026-05-05 02:03 | 41.53761 | -74.33665 | 9255 ft | 269 kts | 203° |
| 2026-05-05 02:04 | 41.52004 | -74.34425 | 8872 ft | 267 kts | 203° |
| 2026-05-05 02:04 | 41.50265 | -74.35175 | 8452 ft | 261 kts | 202° |
| 2026-05-05 02:04 | 41.48531 | -74.35923 | 8195 ft | 259 kts | 203° |
| 2026-05-05 02:04 | 41.46827 | -74.36660 | 7895 ft | 260 kts | 203° |
| 2026-05-05 02:05 | 41.45109 | -74.37400 | 7611 ft | 257 kts | 203° |
| 2026-05-05 02:05 | 41.43417 | -74.38129 | 7285 ft | 254 kts | 202° |
| 2026-05-05 02:05 | 41.41696 | -74.38871 | 7031 ft | 251 kts | 202° |
| 2026-05-05 02:05 | 41.40032 | -74.39587 | 6974 ft | 246 kts | 202° |
| 2026-05-05 02:06 | 41.38413 | -74.40283 | 6958 ft | 242 kts | 202° |
| 2026-05-05 02:06 | 41.36812 | -74.40972 | 6953 ft | 240 kts | 202° |
| 2026-05-05 02:06 | 41.35191 | -74.41670 | 7005 ft | 239 kts | 202° |
| 2026-05-05 02:06 | 41.33614 | -74.42347 | 6964 ft | 237 kts | 203° |
| 2026-05-05 02:07 | 41.32028 | -74.43028 | 6957 ft | 239 kts | 203° |
| 2026-05-05 02:07 | 41.30381 | -74.43490 | 6961 ft | 248 kts | 186° |
| 2026-05-05 02:07 | 41.28621 | -74.42915 | 6970 ft | 259 kts | 159° |
| 2026-05-05 02:07 | 41.27043 | -74.41713 | 6944 ft | 257 kts | 155° |
| 2026-05-05 02:08 | 41.25517 | -74.40494 | 6605 ft | 257 kts | 155° |
| 2026-05-05 02:08 | 41.23988 | -74.39272 | 6263 ft | 256 kts | 155° |
| 2026-05-05 02:08 | 41.22438 | -74.38032 | 5950 ft | 253 kts | 155° |
| 2026-05-05 02:08 | 41.20950 | -74.36842 | 5700 ft | 250 kts | 155° |
| 2026-05-05 02:09 | 41.19488 | -74.35673 | 5545 ft | 239 kts | 155° |
| 2026-05-05 02:09 | 41.18080 | -74.34543 | 5486 ft | 227 kts | 155° |
| 2026-05-05 02:09 | 41.16725 | -74.33461 | 5221 ft | 225 kts | 155° |
| 2026-05-05 02:09 | 41.15383 | -74.32391 | 5027 ft | 221 kts | 156° |
| 2026-05-05 02:10 | 41.14042 | -74.31325 | 5008 ft | 226 kts | 155° |
| 2026-05-05 02:10 | 41.12692 | -74.30250 | 4978 ft | 225 kts | 155° |
| 2026-05-05 02:10 | 41.11312 | -74.29153 | 4976 ft | 225 kts | 155° |
| 2026-05-05 02:10 | 41.09959 | -74.28078 | 4974 ft | 225 kts | 155° |
| 2026-05-05 02:11 | 41.08616 | -74.27010 | 4989 ft | 226 kts | 155° |
| 2026-05-05 02:11 | 41.07222 | -74.25903 | 4989 ft | 226 kts | 156° |
| 2026-05-05 02:11 | 41.05859 | -74.24822 | 4990 ft | 226 kts | 155° |
| 2026-05-05 02:11 | 41.04548 | -74.23781 | 4994 ft | 225 kts | 155° |
| 2026-05-05 02:12 | 41.03200 | -74.22711 | 4993 ft | 225 kts | 155° |
| 2026-05-05 02:12 | 41.00543 | -74.20605 | 4735 ft | 221 kts | 155° |
| 2026-05-05 02:12 | 40.99227 | -74.19563 | 4342 ft | 221 kts | 155° |
| 2026-05-05 02:13 | 40.97934 | -74.18539 | 4009 ft | 218 kts | 155° |
| 2026-05-05 02:13 | 40.96684 | -74.17547 | 3704 ft | 214 kts | 155° |
| 2026-05-05 02:13 | 40.95444 | -74.16566 | 3361 ft | 213 kts | 156° |
| 2026-05-05 02:13 | 40.94245 | -74.15617 | 3058 ft | 209 kts | 156° |
| 2026-05-05 02:14 | 40.93073 | -74.14689 | 2998 ft | 199 kts | 156° |
| 2026-05-05 02:14 | 40.91953 | -74.13797 | 2987 ft | 182 kts | 156° |
| 2026-05-05 02:14 | 40.90881 | -74.12951 | 2991 ft | 180 kts | 156° |
| 2026-05-05 02:14 | 40.89886 | -74.12167 | 2996 ft | 181 kts | 157° |
| 2026-05-05 02:15 | 40.88766 | -74.11285 | 3002 ft | 181 kts | 157° |
| 2026-05-05 02:15 | 40.87698 | -74.10445 | 3000 ft | 181 kts | 157° |
| 2026-05-05 02:15 | 40.86640 | -74.09613 | 2915 ft | 178 kts | 156° |
| 2026-05-05 02:15 | 40.85604 | -74.08800 | 2717 ft | 179 kts | 156° |
| 2026-05-05 02:16 | 40.84546 | -74.08028 | 2573 ft | 173 kts | 166° |
| 2026-05-05 02:16 | 40.83394 | -74.07721 | 2514 ft | 167 kts | 186° |
| 2026-05-05 02:16 | 40.82315 | -74.08141 | 2511 ft | 166 kts | 207° |
| 2026-05-05 02:16 | 40.81316 | -74.08818 | 2466 ft | 166 kts | 208° |
| 2026-05-05 02:17 | 40.80316 | -74.09462 | 2259 ft | 161 kts | 206° |
| 2026-05-05 02:17 | 40.79332 | -74.10081 | 2060 ft | 161 kts | 206° |
| 2026-05-05 02:17 | 40.78365 | -74.10694 | 1863 ft | 148 kts | 206° |
| 2026-05-05 02:17 | 40.77499 | -74.11244 | 1679 ft | 136 kts | 205° |
| 2026-05-05 02:18 | 40.76677 | -74.11765 | 1518 ft | 133 kts | 205° |
| 2026-05-05 02:18 | 40.75833 | -74.12302 | 1349 ft | 135 kts | 206° |
| 2026-05-05 02:18 | 40.74973 | -74.12849 | 1161 ft | 135 kts | 206° |
| 2026-05-05 02:18 | 40.74130 | -74.13384 | 980 ft | 135 kts | 206° |
| 2026-05-05 02:19 | 40.73345 | -74.13882 | 812 ft | 135 kts | 206° |
| 2026-05-05 02:19 | 40.72526 | -74.14401 | 631 ft | 138 kts | 205° |
| 2026-05-05 02:19 | 40.71708 | -74.14921 | 457 ft | 140 kts | 206° |
| 2026-05-05 02:19 | 40.70909 | -74.15429 | 277 ft | 141 kts | 205° |
| 2026-05-05 02:20 | 40.70057 | -74.15966 | 85 ft | 142 kts | 206° |
| 2026-05-05 02:20 | 40.69234 | -74.16496 | 23 ft | 126 kts | 205° |
| 2026-05-05 02:20 | 40.68556 | -74.16920 | 22 ft | 95 kts | 205° |
| 2026-05-05 02:20 | 40.68091 | -74.17216 | 22 ft | 62 kts | 206° |
| 2026-05-05 02:21 | 40.67870 | -74.17358 | 22 ft | 27 kts | 206° |
| 2026-05-05 02:21 | 40.67793 | -74.17434 | 22 ft | 8 kts | 256° |
| 2026-05-05 02:21 | 40.67804 | -74.17497 | 22 ft | 6 kts | 294° |
| 2026-05-05 02:21 | 40.67819 | -74.17541 | 22 ft | 3 kts | 294° |
| 2026-05-05 02:22 | 40.67823 | -74.17554 | 22 ft | 0 kts | 294° |
| 2026-05-05 02:22 | 40.67827 | -74.17569 | 22 ft | 3 kts | 279° |
| 2026-05-05 02:22 | 40.67817 | -74.17607 | 22 ft | 5 kts | 222° |
| 2026-05-05 02:23 | 40.67773 | -74.17639 | 22 ft | 9 kts | 208° |
| 2026-05-05 02:23 | 40.67731 | -74.17708 | 22 ft | 10 kts | 269° |
| 2026-05-05 02:23 | 40.67764 | -74.17790 | 22 ft | 10 kts | 301° |
| 2026-05-05 02:23 | 40.67799 | -74.17873 | 22 ft | 10 kts | 297° |
| 2026-05-05 02:24 | 40.67854 | -74.17903 | 22 ft | 10 kts | 15° |
| 2026-05-05 02:24 | 40.67916 | -74.17865 | 22 ft | 10 kts | 25° |
| 2026-05-05 02:24 | 40.67983 | -74.17824 | 22 ft | 11 kts | 26° |
| 2026-05-05 02:24 | 40.68051 | -74.17781 | 22 ft | 11 kts | 25° |
| 2026-05-05 02:25 | 40.68118 | -74.17738 | 22 ft | 11 kts | 25° |
| 2026-05-05 02:25 | 40.68190 | -74.17693 | 22 ft | 12 kts | 26° |
| 2026-05-05 02:25 | 40.68264 | -74.17647 | 22 ft | 12 kts | 26° |
| 2026-05-05 02:25 | 40.68338 | -74.17600 | 22 ft | 12 kts | 26° |
| 2026-05-05 02:26 | 40.68411 | -74.17553 | 22 ft | 12 kts | 26° |
| 2026-05-05 02:26 | 40.68485 | -74.17505 | 22 ft | 12 kts | 26° |
| 2026-05-05 02:26 | 40.68566 | -74.17453 | 22 ft | 12 kts | 26° |
| 2026-05-05 02:26 | 40.68647 | -74.17403 | 22 ft | 13 kts | 25° |
| 2026-05-05 02:27 | 40.68729 | -74.17354 | 22 ft | 13 kts | 25° |
| 2026-05-05 02:27 | 40.68806 | -74.17303 | 22 ft | 13 kts | 27° |
| 2026-05-05 02:27 | 40.68882 | -74.17279 | 22 ft | 11 kts | 329° |
| 2026-05-05 02:27 | 40.68915 | -74.17344 | 22 ft | 0 kts | 300° |
| 2026-05-05 02:28 | 40.68923 | -74.17358 | 22 ft | 4 kts | 316° |
| 2026-05-05 02:28 | 40.68958 | -74.17384 | 22 ft | 7 kts | 330° |
| 2026-05-05 02:28 | 40.68982 | -74.17426 | 22 ft | 4 kts | 293° |
| 2026-05-05 02:28 | 40.68987 | -74.17445 | 22 ft | 0 kts | 287° |
| 2026-05-05 02:29 | 40.68990 | -74.17454 | 22 ft | 1 kts | 287° |
| 2026-05-05 02:29 | 40.68990 | -74.17455 | 22 ft | 0 kts | 287° |